Time;durP1;ratioP1;P1;durP2;ratioP2;P2;SDS_P1;SDS_P2;PMS_P1;PMS_P2;Temp;Humidity;BMP_temperature;BMP_pressure;BME280_temperature;BME280_humidity;BME280_pressure;Samples;Min_cycle;Max_cycle;Signal;HPM_P1;HPM_P2
2022/05/25 00:01:55;;;;;;;4.70;3.10;;;11.10;99.90;;;;;;5112320;28;20834;-53
2022/05/25 00:04:23;;;;;;;7.33;3.37;;;11.20;99.90;;;;;;5113570;28;20211;-53
2022/05/25 00:06:51;;;;;;;5.47;3.00;;;11.10;99.90;;;;;;5112778;28;20246;-52
2022/05/25 00:09:20;;;;;;;5.57;2.60;;;11.10;99.90;;;;;;5111927;28;20208;-52
2022/05/25 00:11:48;;;;;;;2.63;1.80;;;11.20;99.90;;;;;;5112375;28;20231;-53
2022/05/25 00:14:18;;;;;;;3.07;1.60;;;11.20;99.90;;;;;;5113044;28;20264;-52
2022/05/25 00:16:46;;;;;;;2.10;1.53;;;11.20;99.90;;;;;;5112158;28;20311;-53
2022/05/25 00:22:00;;;;;;;2.10;1.80;;;11.30;99.90;;;;;;5111629;28;20227;-52
2022/05/25 00:24:28;;;;;;;3.43;1.83;;;11.30;99.90;;;;;;5112551;28;20208;-53
2022/05/25 00:26:56;;;;;;;2.20;2.00;;;11.20;99.90;;;;;;5113038;28;20590;-53
2022/05/25 00:29:26;;;;;;;3.87;2.10;;;11.20;99.90;;;;;;5112830;28;20238;-52
2022/05/25 00:31:54;;;;;;;3.33;2.00;;;11.20;99.90;;;;;;5111962;28;20266;-52
2022/05/25 00:34:23;;;;;;;3.93;2.07;;;11.30;99.90;;;;;;5112507;28;20257;-53
2022/05/25 00:36:51;;;;;;;2.40;2.20;;;11.30;99.90;;;;;;5095059;28;20261;-53
2022/05/25 00:39:19;;;;;;;2.20;1.83;;;11.30;99.90;;;;;;5092354;28;20254;-52
2022/05/25 00:41:47;;;;;;;2.50;1.87;;;11.30;99.90;;;;;;5091295;28;20227;-52
2022/05/25 00:44:15;;;;;;;3.03;1.70;;;11.30;99.90;;;;;;5092177;28;20204;-52
2022/05/25 00:46:45;;;;;;;3.67;2.37;;;11.30;99.90;;;;;;5091960;28;20605;-53
2022/05/25 00:49:19;;;;;;;2.63;2.00;;;11.40;99.90;;;;;;5092174;28;20283;-52
2022/05/25 00:51:53;;;;;;;2.20;2.00;;;11.30;99.90;;;;;;5091129;28;20262;-52
2022/05/25 00:54:24;;;;;;;2.43;1.93;;;11.40;99.90;;;;;;5091867;28;20231;-53
2022/05/25 00:56:54;;;;;;;3.00;1.80;;;11.40;99.90;;;;;;5091815;28;20707;-53
2022/05/25 00:59:27;;;;;;;2.00;1.73;;;11.40;99.90;;;;;;5090611;28;20243;-52
2022/05/25 01:01:57;;;;;;;2.53;1.80;;;11.40;99.90;;;;;;5091065;28;20227;-53
2022/05/25 01:04:26;;;;;;;2.73;1.60;;;11.40;99.90;;;;;;5091451;28;20192;-53
2022/05/25 01:07:07;;;;;;;3.37;2.07;;;11.40;99.90;;;;;;5091606;28;20232;-52
2022/05/25 01:09:47;;;;;;;2.20;2.00;;;11.40;99.90;;;;;;5091591;28;20227;-53
2022/05/25 01:12:35;;;;;;;2.30;1.97;;;11.40;99.90;;;;;;5091235;28;20258;-53
2022/05/25 01:15:15;;;;;;;3.47;2.30;;;11.40;99.90;;;;;;5090691;28;20446;-53
2022/05/25 01:17:57;;;;;;;4.37;2.10;;;11.40;99.90;;;;;;5091331;28;20751;-53
2022/05/25 01:20:29;;;;;;;6.10;2.47;;;11.40;99.90;;;;;;5107520;28;20237;-53
2022/05/25 01:23:22;;;;;;;3.27;2.30;;;11.40;99.90;;;;;;5111031;28;20238;-52
2022/05/25 01:26:12;;;;;;;3.67;2.00;;;11.40;99.90;;;;;;5111473;28;20290;-53
2022/05/25 01:28:56;;;;;;;2.67;2.10;;;11.40;99.90;;;;;;5111514;28;20748;-53
2022/05/25 01:31:31;;;;;;;3.03;2.10;;;11.40;99.90;;;;;;5111247;27;20367;-53
2022/05/25 01:34:08;;;;;;;2.17;1.87;;;11.30;99.90;;;;;;5111204;28;20207;-53
2022/05/25 01:36:42;;;;;;;2.73;1.90;;;11.30;99.90;;;;;;5111111;28;20263;-52
2022/05/25 01:39:15;;;;;;;2.13;1.93;;;11.20;99.90;;;;;;5111611;28;20234;-52
2022/05/25 01:41:50;;;;;;;3.07;2.20;;;11.20;99.90;;;;;;5110799;28;20231;-53
2022/05/25 01:44:23;;;;;;;2.50;2.30;;;11.10;99.90;;;;;;5111083;28;20263;-52
2022/05/25 01:46:55;;;;;;;3.53;2.10;;;11.10;99.90;;;;;;5111101;28;20214;-53
2022/05/25 01:49:28;;;;;;;3.27;2.30;;;11.10;99.90;;;;;;5111080;27;20929;-53
2022/05/25 01:52:00;;;;;;;3.63;2.43;;;11.10;99.90;;;;;;5110173;28;20334;-53
2022/05/25 01:54:32;;;;;;;3.30;2.07;;;11.00;99.90;;;;;;5091102;28;20212;-53
2022/05/25 01:57:06;;;;;;;2.20;2.10;;;11.00;99.90;;;;;;5091070;28;20242;-53
2022/05/25 01:59:34;;;;;;;3.23;2.03;;;11.00;99.90;;;;;;5090264;28;20595;-53
2022/05/25 02:04:53;;;;;;;3.00;2.30;;;11.00;99.90;;;;;;5110876;28;20280;-52
2022/05/25 02:07:36;;;;;;;3.60;2.10;;;11.00;99.90;;;;;;5110757;28;20208;-52
2022/05/25 02:10:20;;;;;;;4.03;2.13;;;11.00;99.90;;;;;;5109899;28;20191;-53
2022/05/25 02:13:03;;;;;;;3.00;2.10;;;10.90;99.90;;;;;;5110286;28;20224;-53
2022/05/25 02:15:37;;;;;;;2.70;2.40;;;10.80;99.90;;;;;;5110530;28;20288;-53
2022/05/25 02:18:12;;;;;;;4.17;2.50;;;10.80;99.90;;;;;;5109936;28;20257;-53
2022/05/25 02:20:45;;;;;;;3.40;2.20;;;10.70;99.90;;;;;;5110375;28;20230;-53
2022/05/25 02:23:20;;;;;;;5.23;2.30;;;10.60;99.90;;;;;;5109631;28;20660;-52
2022/05/25 02:25:54;;;;;;;5.00;2.20;;;10.60;99.90;;;;;;5110530;28;20236;-53
2022/05/25 02:28:28;;;;;;;1.87;1.73;;;10.60;99.90;;;;;;5110629;28;20203;-53
2022/05/25 02:30:59;;;;;;;4.73;2.50;;;10.50;99.90;;;;;;5109841;28;20378;-53
2022/05/25 02:33:32;;;;;;;2.40;2.20;;;10.50;99.90;;;;;;5109769;28;20976;-53
2022/05/25 02:36:02;;;;;;;2.40;2.00;;;10.50;99.90;;;;;;5110133;28;20676;-53
2022/05/25 02:38:30;;;;;;;4.67;2.60;;;10.50;99.90;;;;;;5110319;28;20261;-53
2022/05/25 02:41:06;;;;;;;3.43;2.10;;;10.40;99.90;;;;;;5109602;28;20321;-53
2022/05/25 02:43:36;;;;;;;3.03;2.30;;;10.40;99.90;;;;;;5109857;28;20263;-53
2022/05/25 02:46:04;;;;;;;2.17;1.80;;;10.40;99.90;;;;;;5110162;28;20264;-53
2022/05/25 02:48:34;;;;;;;3.57;2.17;;;10.30;99.90;;;;;;5110380;28;20203;-53
2022/05/25 02:51:02;;;;;;;3.13;2.17;;;10.30;99.90;;;;;;5109135;28;20270;-53
2022/05/25 02:53:30;;;;;;;3.53;2.23;;;10.30;99.90;;;;;;5109538;28;20277;-53
2022/05/25 02:55:58;;;;;;;2.50;2.00;;;10.20;99.90;;;;;;5112705;28;20207;-51
2022/05/25 02:58:27;;;;;;;4.33;2.50;;;10.20;99.90;;;;;;5117136;28;20231;-52
2022/05/25 03:00:55;;;;;;;2.13;2.03;;;10.10;99.90;;;;;;5114624;28;20719;-53
2022/05/25 03:03:23;;;;;;;3.40;2.43;;;10.10;99.90;;;;;;5109851;28;20706;-53
2022/05/25 03:05:53;;;;;;;3.27;2.30;;;10.10;99.90;;;;;;5110451;28;20208;-52
2022/05/25 03:08:21;;;;;;;2.30;2.10;;;10.00;99.90;;;;;;5128994;27;20611;-53
2022/05/25 03:10:49;;;;;;;3.40;2.37;;;10.00;99.90;;;;;;5130143;27;20203;-52
2022/05/25 03:13:18;;;;;;;3.83;1.87;;;9.90;99.90;;;;;;5130096;28;20203;-52
2022/05/25 03:15:46;;;;;;;2.20;2.00;;;9.90;99.90;;;;;;5130570;28;20214;-53
2022/05/25 03:18:14;;;;;;;2.13;1.90;;;9.90;99.90;;;;;;5130719;28;20202;-53
2022/05/25 03:20:42;;;;;;;2.77;2.03;;;9.90;99.90;;;;;;5130439;28;20198;-52
2022/05/25 03:23:12;;;;;;;4.10;2.17;;;9.90;99.90;;;;;;5131184;27;20227;-52
2022/05/25 03:25:40;;;;;;;3.03;2.20;;;9.80;99.90;;;;;;5134866;27;20206;-52
2022/05/25 03:28:09;;;;;;;3.43;2.20;;;9.80;99.90;;;;;;5135041;27;20210;-52
2022/05/25 03:30:37;;;;;;;4.60;2.50;;;9.80;99.90;;;;;;5134558;27;20203;-52
2022/05/25 03:33:05;;;;;;;2.87;2.20;;;9.80;99.90;;;;;;5134563;27;20826;-52
2022/05/25 03:35:33;;;;;;;4.30;2.20;;;9.80;99.90;;;;;;5128755;27;20205;-53
2022/05/25 03:38:02;;;;;;;2.37;1.90;;;9.80;99.90;;;;;;5113627;28;20243;-53
2022/05/25 03:40:31;;;;;;;5.90;2.50;;;9.80;99.90;;;;;;5113979;28;20230;-53
2022/05/25 03:43:00;;;;;;;3.63;2.30;;;9.80;99.90;;;;;;5112922;28;20719;-53
2022/05/25 03:45:28;;;;;;;4.97;2.27;;;9.80;99.90;;;;;;5113698;28;20745;-53
2022/05/25 03:47:56;;;;;;;4.30;2.90;;;9.80;99.90;;;;;;5113752;28;20243;-53
2022/05/25 03:50:24;;;;;;;7.43;2.80;;;9.80;99.90;;;;;;5114008;28;20261;-53
2022/05/25 03:52:52;;;;;;;6.00;2.17;;;9.80;99.90;;;;;;5113190;28;20219;-52
2022/05/25 03:55:21;;;;;;;4.57;2.50;;;9.80;99.90;;;;;;5113683;28;20218;-52
2022/05/25 03:57:50;;;;;;;3.37;2.20;;;9.80;99.90;;;;;;5112602;28;20298;-53
2022/05/25 04:00:19;;;;;;;2.83;2.37;;;9.90;99.90;;;;;;5112801;28;20203;-53
2022/05/25 04:02:48;;;;;;;2.77;2.13;;;9.80;99.90;;;;;;5112972;28;20227;-52
2022/05/25 04:05:16;;;;;;;2.27;1.80;;;9.90;99.90;;;;;;5113250;28;20294;-52
2022/05/25 04:07:47;;;;;;;3.30;1.83;;;9.90;99.90;;;;;;5111544;28;20212;-53
2022/05/25 04:10:19;;;;;;;2.03;1.80;;;10.00;99.90;;;;;;5113191;28;20235;-52
2022/05/25 04:12:48;;;;;;;4.87;2.47;;;10.30;99.90;;;;;;5133126;27;20230;-52
2022/05/25 04:15:19;;;;;;;3.73;2.47;;;11.10;99.90;;;;;;5134134;27;20402;-53
2022/05/25 04:17:47;;;;;;;7.47;2.40;;;11.40;99.90;;;;;;5119935;27;20208;-53
2022/05/25 04:20:17;;;;;;;2.17;1.90;;;11.00;99.90;;;;;;5112777;28;20269;-52
2022/05/25 04:22:46;;;;;;;2.43;2.00;;;10.80;99.90;;;;;;5111820;28;20712;-52
2022/05/25 04:25:16;;;;;;;3.33;1.80;;;10.90;99.90;;;;;;5113230;28;20253;-53
2022/05/25 04:27:46;;;;;;;5.50;2.00;;;10.80;99.90;;;;;;5112725;28;20901;-52
2022/05/25 04:30:18;;;;;;;4.33;2.10;;;10.80;99.90;;;;;;5112791;28;20253;-53
2022/05/25 04:32:47;;;;;;;2.53;1.70;;;10.90;99.90;;;;;;5112036;28;20228;-53
2022/05/25 04:35:16;;;;;;;3.33;1.70;;;12.00;99.90;;;;;;5112709;28;20260;-52
2022/05/25 04:37:52;;;;;;;4.03;1.77;;;12.80;99.90;;;;;;5112516;28;20285;-53
2022/05/25 04:40:25;;;;;;;3.03;1.60;;;12.70;99.90;;;;;;5112728;28;20207;-53
2022/05/25 04:42:56;;;;;;;1.67;1.50;;;12.20;99.90;;;;;;5111387;28;20765;-52
2022/05/25 04:45:26;;;;;;;3.27;2.00;;;11.80;99.90;;;;;;5111904;28;20204;-53
2022/05/25 04:47:55;;;;;;;3.43;1.70;;;11.60;99.90;;;;;;5112444;28;20249;-53
2022/05/25 04:50:25;;;;;;;3.20;1.60;;;11.60;99.90;;;;;;5111782;28;20676;-52
2022/05/25 04:52:56;;;;;;;3.43;1.73;;;11.60;99.90;;;;;;5132232;27;20393;-52
2022/05/25 04:58:19;;;;;;;2.47;1.60;;;13.30;99.90;;;;;;5132832;27;20218;-53
2022/05/25 05:00:48;;;;;;;2.53;1.67;;;14.60;99.90;;;;;;5132549;27;20268;-53
2022/05/25 05:03:17;;;;;;;2.60;1.60;;;15.20;99.90;;;;;;5132137;27;20250;-53
2022/05/25 05:05:46;;;;;;;2.90;1.60;;;14.40;99.90;;;;;;5132623;27;20214;-53
2022/05/25 05:08:15;;;;;;;2.30;1.77;;;14.10;99.90;;;;;;5108079;27;20240;-53
2022/05/25 05:10:43;;;;;;;2.53;1.80;;;13.70;99.90;;;;;;5106492;28;20642;-53
2022/05/25 05:13:11;;;;;;;3.93;1.47;;;13.50;99.90;;;;;;5110920;28;20695;-53
2022/05/25 05:15:42;;;;;;;3.40;1.80;;;13.30;99.90;;;;;;5111323;28;20236;-53
2022/05/25 05:18:12;;;;;;;3.77;1.90;;;13.10;99.90;;;;;;5107853;28;20238;-51
2022/05/25 05:20:40;;;;;;;2.17;1.80;;;13.00;99.90;;;;;;5095424;28;20240;-51
2022/05/25 05:23:11;;;;;;;3.83;1.73;;;13.20;99.90;;;;;;5090501;28;20302;-50
2022/05/25 05:25:40;;;;;;;2.30;1.60;;;13.20;99.90;;;;;;5090794;28;20204;-50
2022/05/25 05:28:14;;;;;;;2.90;1.73;;;13.20;99.90;;;;;;5091059;28;20224;-50
2022/05/25 05:30:48;;;;;;;2.13;1.93;;;13.40;99.90;;;;;;5090773;28;20247;-53
2022/05/25 05:33:22;;;;;;;4.03;2.03;;;13.50;99.90;;;;;;5088517;28;20211;-53
2022/05/25 05:35:53;;;;;;;2.03;1.70;;;13.50;99.90;;;;;;5099726;28;20211;-53
2022/05/25 05:38:23;;;;;;;3.70;2.23;;;13.80;99.90;;;;;;5090328;28;20216;-53
2022/05/25 05:40:52;;;;;;;4.60;2.10;;;13.70;99.90;;;;;;5090539;28;20266;-53
2022/05/25 05:43:20;;;;;;;2.50;2.23;;;13.60;99.90;;;;;;5090425;28;20269;-53
2022/05/25 05:45:48;;;;;;;2.60;2.30;;;13.60;99.90;;;;;;5090007;28;20212;-53
2022/05/25 05:48:19;;;;;;;4.78;1.77;;;13.90;99.90;;;;;;5103953;28;20203;-53
2022/05/25 05:50:51;;;;;;;4.30;2.00;;;13.90;99.90;;;;;;5110721;28;20218;-53
2022/05/25 05:53:19;;;;;;;1.90;1.80;;;15.10;99.90;;;;;;5110198;28;20215;-53
2022/05/25 05:55:49;;;;;;;2.70;1.90;;;16.20;99.90;;;;;;5110957;28;20231;-53
2022/05/25 05:58:17;;;;;;;1.90;1.77;;;17.00;99.90;;;;;;5111281;28;20650;-53
2022/05/25 06:00:45;;;;;;;2.58;1.73;;;17.60;99.90;;;;;;5110057;28;20739;-53
2022/05/25 06:03:14;;;;;;;2.38;2.00;;;18.10;99.90;;;;;;5110838;28;20223;-53
2022/05/25 06:05:44;;;;;;;1.88;1.65;;;18.60;99.90;;;;;;5111632;28;20880;-53
2022/05/25 06:08:17;;;;;;;2.30;1.48;;;18.80;99.90;;;;;;5110571;28;20998;-53
2022/05/25 06:10:46;;;;;;;2.25;2.03;;;19.10;99.90;;;;;;5110594;28;20269;-53
2022/05/25 06:13:14;;;;;;;1.70;1.60;;;19.40;99.90;;;;;;5110401;28;20571;-52
2022/05/25 06:21:20;;;;;;;4.40;1.60;;;20.00;99.90;;;;;;5110255;28;20591;-53
2022/05/25 06:23:50;;;;;;;4.15;1.70;;;20.20;99.90;;;;;;5110288;28;20219;-53
2022/05/25 06:26:19;;;;;;;2.58;1.77;;;20.20;99.90;;;;;;5110368;28;20235;-53
2022/05/25 06:28:47;;;;;;;3.50;1.85;;;20.50;99.90;;;;;;5110328;28;20606;-53
2022/05/25 06:31:15;;;;;;;2.15;1.95;;;20.70;99.90;;;;;;5110012;28;20280;-53
2022/05/25 06:33:43;;;;;;;2.53;1.88;;;20.80;99.90;;;;;;5110176;28;20191;-53
2022/05/25 06:36:13;;;;;;;3.60;1.88;;;21.00;99.90;;;;;;5109775;28;20204;-53
2022/05/25 06:38:41;;;;;;;2.75;1.70;;;21.10;99.90;;;;;;5106117;28;20289;-50
2022/05/25 06:41:11;;;;;;;2.47;1.95;;;21.20;99.90;;;;;;5102052;28;20227;-51
2022/05/25 06:43:39;;;;;;;3.45;1.52;;;21.80;99.90;;;;;;5109219;28;20211;-51
2022/05/25 06:46:08;;;;;;;2.30;1.90;;;21.90;99.90;;;;;;5110348;28;20257;-51
2022/05/25 06:48:47;;;;;;;2.67;2.05;;;21.90;99.90;;;;;;5127174;27;20281;-51
2022/05/25 06:51:18;;;;;;;2.28;2.08;;;21.80;99.90;;;;;;5130132;27;20274;-51
2022/05/25 06:53:46;;;;;;;2.38;2.17;;;21.80;99.90;;;;;;5129956;27;20196;-51
2022/05/25 06:56:16;;;;;;;3.03;1.83;;;21.90;99.90;;;;;;5113543;27;20227;-51
2022/05/25 06:58:48;;;;;;;2.13;1.92;;;22.00;99.90;;;;;;5109744;28;20828;-50
2022/05/25 07:01:16;;;;;;;3.80;2.10;;;22.20;99.90;;;;;;5100964;28;20282;-50
2022/05/25 07:03:44;;;;;;;2.40;2.20;;;22.30;99.90;;;;;;5088985;28;20239;-51
2022/05/25 07:06:14;;;;;;;3.10;1.95;;;22.30;99.90;;;;;;5088421;28;20207;-51
2022/05/25 07:08:43;;;;;;;2.65;2.20;;;22.60;99.90;;;;;;5089591;28;20204;-51
2022/05/25 07:11:12;;;;;;;3.05;2.13;;;22.70;99.90;;;;;;5089397;28;20239;-51
2022/05/25 07:13:42;;;;;;;3.65;2.30;;;22.70;99.90;;;;;;5088642;28;20285;-51
2022/05/25 07:16:13;;;;;;;4.43;2.20;;;22.50;99.90;;;;;;5089585;28;20261;-51
2022/05/25 07:18:41;;;;;;;2.95;2.00;;;22.80;99.90;;;;;;5090635;28;20212;-51
2022/05/25 07:21:12;;;;;;;3.05;2.10;;;22.80;99.90;;;;;;5130051;28;20267;-52
2022/05/25 07:23:41;;;;;;;2.75;2.35;;;22.80;99.90;;;;;;5107478;28;20220;-51
2022/05/25 07:26:10;;;;;;;3.10;2.25;;;23.00;99.90;;;;;;5102456;28;20676;-51
2022/05/25 07:28:39;;;;;;;2.63;2.20;;;22.80;99.90;;;;;;5109532;28;20212;-51
2022/05/25 07:31:12;;;;;;;4.78;2.30;;;22.80;99.90;;;;;;5108431;28;20235;-51
2022/05/25 07:33:42;;;;;;;3.80;2.50;;;23.10;99.90;;;;;;5109568;28;20200;-51
2022/05/25 07:36:11;;;;;;;3.15;2.30;;;22.90;99.90;;;;;;5108745;28;20257;-51
2022/05/25 07:38:44;;;;;;;2.55;1.92;;;23.00;99.90;;;;;;5109246;28;20254;-51
2022/05/25 07:41:12;;;;;;;2.28;2.08;;;23.20;99.90;;;;;;5109395;28;20321;-51
2022/05/25 07:43:43;;;;;;;3.17;2.10;;;23.20;99.90;;;;;;5107649;28;20203;-51
2022/05/25 07:46:12;;;;;;;3.92;2.20;;;23.10;99.90;;;;;;5109341;28;20188;-51
2022/05/25 07:48:40;;;;;;;4.97;2.15;;;23.30;99.90;;;;;;5109252;28;20203;-51
2022/05/25 07:51:09;;;;;;;3.58;2.00;;;23.40;99.90;;;;;;5123093;28;20230;-51
2022/05/25 07:56:23;;;;;;;2.90;1.92;;;23.40;99.90;;;;;;5089341;28;20269;-51
2022/05/25 07:58:57;;;;;;;3.13;1.92;;;23.60;99.90;;;;;;5089085;28;20196;-51
2022/05/25 08:07:03;;;;;;;5.38;2.05;;;22.70;99.90;;;;;;5088816;28;20216;-51
2022/05/25 08:09:33;;;;;;;2.58;2.03;;;22.20;99.90;;;;;;5091207;28;20235;-50
2022/05/25 08:12:02;;;;;;;3.70;2.00;;;21.90;99.90;;;;;;5091822;28;20227;-50
2022/05/25 08:14:30;;;;;;;3.97;2.00;;;21.50;99.90;;;;;;5092414;28;20219;-51
2022/05/25 08:17:00;;;;;;;5.20;1.88;;;21.60;99.90;;;;;;5092104;28;20266;-51
2022/05/25 08:19:28;;;;;;;4.22;1.95;;;21.40;99.90;;;;;;5100884;28;20999;-51
2022/05/25 08:21:56;;;;;;;3.53;1.98;;;21.20;99.90;;;;;;5112217;28;20255;-51
2022/05/25 08:24:24;;;;;;;3.30;1.73;;;21.40;99.90;;;;;;5112456;28;20306;-50
2022/05/25 08:26:52;;;;;;;4.32;1.63;;;21.50;99.90;;;;;;5112871;28;20200;-51
2022/05/25 08:29:24;;;;;;;3.45;1.92;;;21.60;99.90;;;;;;5112438;28;20665;-51
2022/05/25 08:31:55;;;;;;;4.15;2.22;;;21.90;99.90;;;;;;5110942;28;20715;-51
2022/05/25 08:34:25;;;;;;;3.15;1.92;;;22.10;99.90;;;;;;5112066;28;20204;-50
2022/05/25 08:36:53;;;;;;;2.88;1.52;;;22.40;99.90;;;;;;5112098;28;20261;-51
2022/05/25 08:39:22;;;;;;;2.53;1.70;;;22.00;99.90;;;;;;5112454;28;20207;-51
2022/05/25 08:41:53;;;;;;;3.92;1.70;;;21.60;99.90;;;;;;5112170;28;20700;-51
2022/05/25 08:44:23;;;;;;;2.70;1.77;;;21.00;99.90;;;;;;5112084;28;20223;-50
2022/05/25 08:46:55;;;;;;;2.65;2.00;;;20.70;99.90;;;;;;5112876;28;20275;-53
2022/05/25 08:49:27;;;;;;;4.55;1.92;;;20.50;99.90;;;;;;5111157;28;20208;-53
2022/05/25 08:51:57;;;;;;;3.30;1.80;;;20.30;99.90;;;;;;5131748;27;20223;-53
2022/05/25 08:54:27;;;;;;;2.60;1.90;;;20.10;99.90;;;;;;5133175;27;20199;-54
2022/05/25 08:56:59;;;;;;;3.53;2.00;;;20.40;99.90;;;;;;5132710;27;20199;-53
2022/05/25 08:59:31;;;;;;;4.75;1.90;;;20.80;99.90;;;;;;5132898;27;20210;-53
2022/05/25 09:02:01;;;;;;;2.97;1.90;;;21.10;99.90;;;;;;5132252;27;20231;-53
2022/05/25 09:04:39;;;;;;;4.47;1.80;;;21.40;99.90;;;;;;5132263;27;20230;-53
2022/05/25 09:07:15;;;;;;;3.80;1.80;;;21.40;99.90;;;;;;5132253;27;20649;-53
2022/05/25 09:09:45;;;;;;;4.72;1.90;;;21.50;99.90;;;;;;5129368;27;20199;-54
2022/05/25 09:12:19;;;;;;;2.97;1.85;;;21.60;99.90;;;;;;5112066;28;20235;-53
2022/05/25 09:14:52;;;;;;;2.95;1.70;;;21.80;99.90;;;;;;5111242;28;20203;-53
2022/05/25 09:17:26;;;;;;;2.10;1.58;;;22.00;99.90;;;;;;5112353;28;20188;-53
2022/05/25 09:19:56;;;;;;;4.05;1.92;;;22.00;99.90;;;;;;5111432;28;20737;-54
2022/05/25 09:22:25;;;;;;;5.63;2.00;;;21.60;99.90;;;;;;5130229;27;20265;-53
2022/05/25 09:24:56;;;;;;;1.75;1.50;;;21.30;99.90;;;;;;5132008;27;20226;-53
2022/05/25 09:27:31;;;;;;;2.70;1.70;;;21.30;99.90;;;;;;5132925;27;20225;-53
2022/05/25 09:30:03;;;;;;;2.97;1.88;;;21.10;99.90;;;;;;5132346;27;20257;-53
2022/05/25 09:32:38;;;;;;;4.00;1.80;;;21.40;99.90;;;;;;5132474;27;20230;-52
2022/05/25 09:35:12;;;;;;;3.60;1.55;;;21.40;99.90;;;;;;5129529;27;20251;-53
2022/05/25 09:37:45;;;;;;;1.80;1.20;;;21.20;99.90;;;;;;5111316;28;20220;-53
2022/05/25 09:40:21;;;;;;;1.98;1.35;;;21.40;99.90;;;;;;5111593;28;20199;-53
2022/05/25 09:42:57;;;;;;;2.60;1.58;;;21.10;99.90;;;;;;5110752;28;20292;-52
2022/05/25 09:45:34;;;;;;;2.38;1.45;;;21.10;99.90;;;;;;5098811;28;20230;-51
2022/05/25 09:48:14;;;;;;;5.22;1.40;;;21.40;99.90;;;;;;5115648;27;20841;-51
2022/05/25 09:50:46;;;;;;;3.58;1.58;;;21.60;99.90;;;;;;5110293;28;20200;-51
2022/05/25 09:53:17;;;;;;;2.33;1.35;;;21.80;99.90;;;;;;5110243;28;20192;-51
2022/05/25 09:55:51;;;;;;;1.90;1.10;;;21.80;99.90;;;;;;5110788;28;20269;-50
2022/05/25 09:58:28;;;;;;;5.18;1.63;;;21.80;99.90;;;;;;5110048;28;20254;-53
2022/05/25 10:00:59;;;;;;;3.10;1.45;;;21.70;99.90;;;;;;5109331;28;20249;-52
2022/05/25 10:03:40;;;;;;;2.35;1.20;;;21.50;99.90;;;;;;5090337;28;20275;-53
2022/05/25 10:06:25;;;;;;;1.70;1.27;;;21.40;99.90;;;;;;5089701;28;20227;-53
2022/05/25 10:09:08;;;;;;;3.70;1.38;;;20.90;99.90;;;;;;5090501;28;20211;-53
2022/05/25 10:11:43;;;;;;;3.60;1.40;;;20.90;99.90;;;;;;5108910;28;20278;-53
2022/05/25 10:14:28;;;;;;;2.63;1.60;;;21.10;99.90;;;;;;5110551;28;20203;-53
2022/05/25 10:16:58;;;;;;;3.20;1.52;;;21.20;99.90;;;;;;5110327;28;20200;-52
2022/05/25 10:19:26;;;;;;;1.85;1.13;;;21.30;99.90;;;;;;5118789;27;20195;-50
2022/05/25 10:21:58;;;;;;;2.00;1.13;;;21.30;99.90;;;;;;5115190;27;20252;-52
2022/05/25 10:24:31;;;;;;;2.55;1.30;;;21.10;99.90;;;;;;5089893;28;20208;-53
2022/05/25 10:27:03;;;;;;;3.35;1.35;;;20.70;99.90;;;;;;5088637;28;20680;-52
2022/05/25 10:38:12;;;;;;;2.00;1.17;;;20.50;99.90;;;;;;5108805;28;20238;-53
2022/05/25 10:40:45;;;;;;;1.58;1.10;;;20.60;99.90;;;;;;5110024;28;20234;-53
2022/05/25 10:43:26;;;;;;;4.18;1.20;;;20.40;99.90;;;;;;5109024;28;20275;-53
2022/05/25 10:45:56;;;;;;;2.67;1.00;;;20.20;99.90;;;;;;5109479;28;20223;-53
2022/05/25 10:48:42;;;;;;;3.08;1.35;;;20.00;99.90;;;;;;5109954;28;20203;-53
2022/05/25 10:51:14;;;;;;;2.42;1.30;;;20.30;99.90;;;;;;5108573;28;20231;-52
2022/05/25 10:54:44;;;;;;;2.85;1.10;;;20.20;99.90;;;;;;5109766;28;20192;-50
2022/05/25 10:56:43;;;;;;;5.25;1.38;;;20.10;99.90;;;;;;5109421;28;20570;-53
2022/05/25 10:59:18;;;;;;;1.83;0.95;;;20.30;99.90;;;;;;5130047;27;20258;-52
2022/05/25 11:02:02;;;;;;;2.85;1.25;;;20.30;99.90;;;;;;5128544;27;20230;-53
2022/05/25 11:05:09;;;;;;;1.90;1.00;;;20.40;99.90;;;;;;5129902;27;20211;-53
2022/05/25 11:07:39;;;;;;;1.58;1.00;;;20.60;99.90;;;;;;5025856;28;20202;-53
2022/05/25 11:10:24;;;;;;;2.50;1.13;;;20.90;99.90;;;;;;5026567;28;20356;-53
2022/05/25 11:13:13;;;;;;;1.48;0.80;;;21.10;99.90;;;;;;5089572;27;20598;-53
2022/05/25 11:15:53;;;;;;;2.30;0.80;;;21.10;99.90;;;;;;5129943;27;20206;-53
2022/05/25 11:18:32;;;;;;;2.38;0.80;;;21.20;99.90;;;;;;5128078;28;20203;-52
2022/05/25 11:21:16;;;;;;;2.70;0.85;;;21.30;99.90;;;;;;5086885;28;20786;-52
2022/05/25 11:23:58;;;;;;;1.58;0.63;;;21.40;99.90;;;;;;5099274;28;20344;-50
2022/05/25 11:26:43;;;;;;;0.95;0.70;;;21.50;99.90;;;;;;5109336;28;20258;-51
2022/05/25 11:29:26;;;;;;;1.60;0.88;;;21.50;99.90;;;;;;5109441;28;20210;-50
2022/05/25 11:32:00;;;;;;;0.70;0.60;;;21.40;99.90;;;;;;5107944;28;20223;-50
2022/05/25 11:34:42;;;;;;;2.47;0.80;;;21.20;99.90;;;;;;5108770;28;20664;-50
2022/05/25 11:37:32;;;;;;;2.78;0.85;;;20.90;99.90;;;;;;5108600;28;20212;-50
2022/05/25 11:40:09;;;;;;;1.83;0.80;;;21.10;99.90;;;;;;5109224;28;20207;-50
2022/05/25 11:43:07;;;;;;;0.55;0.40;;;21.20;99.90;;;;;;5108436;28;20309;-51
2022/05/25 11:45:53;;;;;;;2.03;0.60;;;21.20;99.90;;;;;;5112765;28;20207;-50
2022/05/25 11:49:03;;;;;;;0.50;0.50;;;21.00;99.90;;;;;;5113828;27;20625;-50
2022/05/25 11:51:43;;;;;;;0.80;0.50;;;20.70;99.90;;;;;;5132839;27;20636;-49
2022/05/25 11:54:26;;;;;;;1.67;0.70;;;20.70;99.90;;;;;;5134191;27;20253;-52
2022/05/25 11:57:01;;;;;;;2.88;0.60;;;20.80;99.90;;;;;;5133831;27;20242;-52
2022/05/25 11:59:57;;;;;;;2.28;0.65;;;20.80;99.90;;;;;;5114878;27;20208;-53
2022/05/25 12:02:55;;;;;;;0.70;0.52;;;21.00;99.90;;;;;;5091668;28;20234;-52
2022/05/25 12:05:29;;;;;;;1.75;0.95;;;21.30;99.90;;;;;;5091666;28;20258;-52
2022/05/25 12:08:23;;;;;;;3.65;0.68;;;21.50;99.90;;;;;;5108243;28;20237;-53
2022/05/25 12:11:06;;;;;;;1.63;0.60;;;21.70;99.90;;;;;;5106206;28;20204;-53
2022/05/25 12:13:42;;;;;;;0.82;0.50;;;21.60;99.90;;;;;;5112198;28;20234;-53
2022/05/25 12:16:18;;;;;;;2.20;0.75;;;21.30;99.90;;;;;;5111592;28;20635;-53
2022/05/25 12:18:53;;;;;;;2.38;0.63;;;21.40;99.50;;;;;;5112822;28;20207;-53
2022/05/25 12:21:24;;;;;;;0.63;0.60;;;21.40;99.90;;;;;;5111399;28;20231;-52
2022/05/25 12:23:57;;;;;;;1.33;0.68;;;21.40;99.90;;;;;;5112029;28;20239;-53
2022/05/25 12:26:30;;;;;;;1.90;0.38;;;21.20;98.90;;;;;;5111246;28;20322;-53
2022/05/25 12:29:08;;;;;;;0.70;0.50;;;21.30;99.90;;;;;;5112613;28;20242;-53
2022/05/25 12:31:38;;;;;;;2.15;0.52;;;21.30;99.90;;;;;;5111797;28;20231;-53
2022/05/25 12:34:07;;;;;;;0.82;0.40;;;21.10;99.90;;;;;;5112161;28;20196;-53
2022/05/25 12:36:35;;;;;;;1.70;0.55;;;21.10;98.60;;;;;;5111914;28;20253;-53
2022/05/25 12:39:03;;;;;;;0.57;0.52;;;21.00;99.00;;;;;;5111437;28;20783;-52
2022/05/25 12:41:35;;;;;;;1.27;0.43;;;21.00;99.50;;;;;;5111495;28;20277;-52
2022/05/25 12:48:30;;;;;;;0.50;0.38;;;20.90;97.30;;;;;;5110672;28;20234;-53
2022/05/25 12:50:02;;;;;;;1.35;0.60;;;21.00;99.00;;;;;;5112864;28;20212;-52
2022/05/25 12:52:46;;;;;;;1.30;0.45;;;21.20;99.70;;;;;;5132358;27;20255;-52
2022/05/25 12:55:33;;;;;;;1.27;0.63;;;21.20;99.80;;;;;;5130927;27;20346;-53
2022/05/25 12:58:04;;;;;;;0.85;0.50;;;21.30;99.90;;;;;;5130499;27;20203;-53
2022/05/25 13:00:40;;;;;;;1.42;0.47;;;21.30;98.90;;;;;;5119522;27;20223;-53
2022/05/25 13:03:36;;;;;;;1.45;0.73;;;21.20;97.60;;;;;;5111423;28;20237;-53
2022/05/25 13:06:05;;;;;;;1.65;0.70;;;21.30;98.00;;;;;;5106770;28;20235;-53
2022/05/25 13:09:10;;;;;;;2.65;0.80;;;21.20;97.70;;;;;;5096916;28;20270;-53
2022/05/25 13:11:44;;;;;;;1.45;0.65;;;21.20;97.70;;;;;;5111711;28;20348;-53
2022/05/25 13:14:54;;;;;;;0.50;0.50;;;21.20;97.20;;;;;;5112110;28;20200;-53
2022/05/25 13:17:47;;;;;;;1.02;0.70;;;21.20;96.90;;;;;;5099712;28;20258;-53
2022/05/25 13:20:56;;;;;;;1.70;0.60;;;20.80;97.30;;;;;;5087727;28;20203;-53
2022/05/25 13:24:01;;;;;;;2.15;0.80;;;20.70;97.30;;;;;;5110621;28;20207;-52
2022/05/25 13:26:42;;;;;;;0.93;0.70;;;20.60;98.20;;;;;;5111420;28;20199;-53
2022/05/25 13:29:19;;;;;;;1.60;0.80;;;20.50;97.40;;;;;;5111983;28;20188;-53
2022/05/25 13:31:54;;;;;;;0.80;0.70;;;20.50;96.90;;;;;;5110479;28;20227;-53
2022/05/25 13:34:22;;;;;;;2.30;0.80;;;20.50;97.10;;;;;;5111755;28;20191;-53
2022/05/25 13:36:55;;;;;;;1.33;0.65;;;20.70;97.10;;;;;;5093623;28;20247;-53
2022/05/25 13:39:26;;;;;;;0.98;0.63;;;20.60;96.40;;;;;;5091595;28;20231;-53
2022/05/25 13:42:01;;;;;;;1.38;0.88;;;20.60;96.20;;;;;;5090021;28;20724;-53
2022/05/25 13:44:38;;;;;;;0.98;0.60;;;20.70;98.60;;;;;;5090642;28;20253;-53
2022/05/25 13:47:06;;;;;;;0.63;0.50;;;20.90;97.60;;;;;;5093392;28;20211;-53
2022/05/25 13:49:38;;;;;;;0.55;0.40;;;21.00;96.80;;;;;;5110200;28;21001;-53
2022/05/25 13:52:14;;;;;;;0.70;0.50;;;20.80;96.40;;;;;;5109877;28;20228;-53
2022/05/25 13:54:43;;;;;;;1.77;0.65;;;20.80;98.10;;;;;;5111241;28;20287;-53